Time;durP1;ratioP1;P1;durP2;ratioP2;P2;SDS_P1;SDS_P2;PMS_P1;PMS_P2;Temp;Humidity;BMP_temperature;BMP_pressure;BME280_temperature;BME280_humidity;BME280_pressure;Samples;Min_cycle;Max_cycle;Signal;HPM_P1;HPM_P2
2021/11/06 00:01:31;;;;;;;0.00;0.00;;;;;;;11.56;100.00;99486.19;5011932;28;20488;-73
2021/11/06 00:03:56;;;;;;;0.00;0.00;;;;;;;11.54;100.00;99475.72;5012841;28;20112;-73
2021/11/06 00:06:22;;;;;;;0.15;0.15;;;;;;;11.45;100.00;99477.38;5014285;28;20053;-75
2021/11/06 00:08:47;;;;;;;0.00;0.00;;;;;;;11.48;100.00;99486.75;5031005;28;20025;-74
2021/11/06 00:11:13;;;;;;;0.00;0.00;;;;;;;11.39;100.00;99481.13;5032561;28;20112;-73
2021/11/06 00:13:39;;;;;;;0.00;0.00;;;;;;;11.49;100.00;99501.75;5021103;28;20484;-74
2021/11/06 00:16:04;;;;;;;0.00;0.00;;;;;;;11.46;100.00;99491.56;5011407;28;20571;-74
2021/11/06 00:18:30;;;;;;;0.00;0.00;;;;;;;11.46;100.00;99494.22;5011623;28;20117;-74
2021/11/06 00:20:55;;;;;;;0.20;0.20;;;;;;;11.47;100.00;99498.53;5012678;28;20030;-74
2021/11/06 00:23:21;;;;;;;0.00;0.00;;;;;;;11.42;100.00;99487.81;5012800;28;20033;-72
2021/11/06 00:25:46;;;;;;;0.10;0.10;;;;;;;11.45;100.00;99488.09;5012531;28;20030;-73
2021/11/06 00:28:12;;;;;;;0.25;0.25;;;;;;;11.46;100.00;99480.84;5012134;28;20109;-72
2021/11/06 00:30:37;;;;;;;0.00;0.00;;;;;;;11.45;100.00;99480.06;5012659;28;20092;-72
2021/11/06 00:33:03;;;;;;;0.00;0.00;;;;;;;11.50;100.00;99487.28;5012404;28;20022;-73
2021/11/06 00:35:28;;;;;;;0.28;0.28;;;;;;;11.49;100.00;99488.34;5010932;28;20034;-74
2021/11/06 00:37:54;;;;;;;0.05;0.05;;;;;;;11.49;100.00;99485.69;5024972;28;20074;-73
2021/11/06 00:40:19;;;;;;;0.00;0.00;;;;;;;11.49;100.00;99489.16;5032140;28;20505;-74
2021/11/06 00:42:45;;;;;;;0.00;0.00;;;;;;;11.49;100.00;99483.00;5032133;28;20054;-74
2021/11/06 00:45:12;;;;;;;0.52;0.52;;;;;;;11.49;100.00;99480.31;5030728;28;20064;-73
2021/11/06 00:47:38;;;;;;;0.00;0.00;;;;;;;11.50;100.00;99485.41;5032122;28;20517;-74
2021/11/06 00:50:07;;;;;;;0.00;0.00;;;;;;;11.46;100.00;99475.50;5029744;28;20119;-74
2021/11/06 00:52:33;;;;;;;0.00;0.00;;;;;;;11.31;100.00;99462.94;5030308;28;20037;-73
2021/11/06 00:54:58;;;;;;;0.00;0.00;;;;;;;11.38;100.00;99476.84;5031428;28;20032;-73
2021/11/06 00:57:24;;;;;;;0.08;0.08;;;;;;;11.32;100.00;99473.38;5030527;28;20032;-74
2021/11/06 00:59:49;;;;;;;0.00;0.00;;;;;;;11.35;100.00;99486.22;5030555;28;20029;-76
2021/11/06 01:02:14;;;;;;;0.00;0.00;;;;;;;11.31;100.00;99474.44;5029643;28;20033;-79
2021/11/06 01:04:40;;;;;;;0.00;0.00;;;;;;;11.29;99.57;99471.25;5029795;28;20391;-76
2021/11/06 01:07:05;;;;;;;0.03;0.03;;;;;;;11.20;99.38;99462.16;5029163;28;20037;-76
2021/11/06 01:09:31;;;;;;;0.00;0.00;;;;;;;11.24;99.25;99481.94;5030130;28;20029;-76
2021/11/06 01:11:57;;;;;;;0.00;0.00;;;;;;;11.20;99.09;99481.72;5031516;28;20398;-75
2021/11/06 01:14:23;;;;;;;0.00;0.00;;;;;;;11.19;98.96;99480.09;5031339;28;20471;-75
2021/11/06 01:16:48;;;;;;;0.00;0.00;;;;;;;11.13;99.02;99485.72;5031643;28;20040;-74
2021/11/06 01:19:14;;;;;;;0.00;0.00;;;;;;;11.07;98.16;99484.09;5031283;28;20017;-75
2021/11/06 01:21:40;;;;;;;0.10;0.10;;;;;;;11.03;98.43;99484.66;5029801;28;20033;-76
2021/11/06 01:24:06;;;;;;;0.00;0.00;;;;;;;11.01;98.82;99485.97;5031089;28;20091;-76
2021/11/06 01:26:31;;;;;;;0.20;0.20;;;;;;;10.95;97.93;99482.50;5030066;28;20494;-76
2021/11/06 01:28:57;;;;;;;0.00;0.00;;;;;;;10.88;98.27;99479.28;5029444;28;20557;-75
2021/11/06 01:31:23;;;;;;;0.00;0.00;;;;;;;10.83;98.02;99473.94;5030748;28;20042;-76
2021/11/06 01:33:48;;;;;;;0.00;0.00;;;;;;;10.78;98.21;99471.25;5030006;28;20380;-76
2021/11/06 01:36:15;;;;;;;0.00;0.00;;;;;;;10.74;98.33;99468.28;5029319;28;20041;-76
2021/11/06 01:38:42;;;;;;;0.00;0.00;;;;;;;10.72;98.97;99479.28;5029919;28;20029;-75
2021/11/06 01:41:08;;;;;;;0.00;0.00;;;;;;;10.64;98.83;99461.06;5030142;28;20067;-75
2021/11/06 01:43:34;;;;;;;0.00;0.00;;;;;;;10.70;99.36;99469.91;5031242;28;20308;-75
2021/11/06 01:46:01;;;;;;;0.00;0.00;;;;;;;10.68;98.97;99470.19;5019475;28;20092;-75
2021/11/06 01:48:30;;;;;;;0.00;0.00;;;;;;;10.67;99.44;99468.56;5029314;28;20040;-74
2021/11/06 01:50:57;;;;;;;0.00;0.00;;;;;;;10.64;99.18;99465.63;5029592;28;20021;-74
2021/11/06 01:53:23;;;;;;;0.00;0.00;;;;;;;10.62;98.97;99460.56;5030693;28;20034;-73
2021/11/06 01:55:51;;;;;;;0.00;0.00;;;;;;;10.53;99.23;99454.94;5030155;28;20037;-74
2021/11/06 01:58:22;;;;;;;0.00;0.00;;;;;;;10.61;98.37;99464.28;5028672;28;20052;-74
2021/11/06 02:00:48;;;;;;;0.00;0.00;;;;;;;10.59;99.08;99460.28;5029309;28;20033;-77
2021/11/06 02:03:15;;;;;;;0.13;0.13;;;;;;;10.50;98.96;99452.78;5029385;28;20128;-77
2021/11/06 02:05:41;;;;;;;0.00;0.00;;;;;;;10.55;98.24;99457.31;5029679;28;20041;-79
2021/11/06 02:08:07;;;;;;;0.00;0.00;;;;;;;10.53;98.22;99454.94;5029074;28;20411;-74
2021/11/06 02:10:33;;;;;;;0.38;0.38;;;;;;;10.55;98.21;99454.66;5028415;28;20026;-75
2021/11/06 02:12:59;;;;;;;0.00;0.00;;;;;;;10.45;98.79;99444.75;5029226;28;20033;-74
2021/11/06 02:15:25;;;;;;;0.00;0.00;;;;;;;10.45;97.87;99452.75;5030819;28;20026;-73
2021/11/06 02:17:51;;;;;;;0.00;0.00;;;;;;;10.49;98.02;99474.44;5031349;28;20544;-72
2021/11/06 02:20:18;;;;;;;0.35;0.35;;;;;;;10.41;98.25;99460.50;5034995;28;20033;-72
2021/11/06 02:22:43;;;;;;;0.00;0.00;;;;;;;10.44;98.16;99469.88;5034891;28;20066;-72
2021/11/06 02:25:10;;;;;;;0.00;0.00;;;;;;;10.33;98.13;99450.31;5031519;28;20354;-77
2021/11/06 02:27:36;;;;;;;0.00;0.00;;;;;;;10.37;97.77;99467.44;5034733;28;20402;-75
2021/11/06 02:30:05;;;;;;;0.00;0.00;;;;;;;10.38;97.93;99465.59;5014501;28;20030;-76
2021/11/06 02:32:31;;;;;;;0.00;0.00;;;;;;;10.37;97.19;99475.47;5013397;28;20042;-76
2021/11/06 02:34:56;;;;;;;0.00;0.00;;;;;;;10.36;97.05;99483.72;5013453;28;20092;-76
2021/11/06 02:37:22;;;;;;;0.00;0.00;;;;;;;10.35;97.16;99484.78;5013537;28;20125;-77
2021/11/06 02:39:47;;;;;;;0.00;0.00;;;;;;;10.34;97.18;99477.81;5016132;28;20030;-75
2021/11/06 02:42:14;;;;;;;0.00;0.00;;;;;;;10.30;96.99;99474.09;5034068;28;20045;-75
2021/11/06 02:44:40;;;;;;;0.00;0.00;;;;;;;10.32;95.34;99480.78;5033251;28;20077;-77
2021/11/06 02:47:05;;;;;;;0.00;0.00;;;;;;;10.25;96.21;99483.72;5033040;28;20057;-77
2021/11/06 02:49:31;;;;;;;0.00;0.00;;;;;;;10.24;96.03;99486.63;5033092;28;20138;-80
2021/11/06 02:51:56;;;;;;;0.00;0.00;;;;;;;10.20;95.67;99485.53;5032969;28;20430;-74
2021/11/06 02:54:22;;;;;;;0.00;0.00;;;;;;;10.14;95.52;99491.94;5033372;28;20036;-76
2021/11/06 02:56:48;;;;;;;0.00;0.00;;;;;;;10.19;95.82;99502.66;5032266;28;20036;-75
2021/11/06 02:59:14;;;;;;;0.00;0.00;;;;;;;10.15;95.68;99498.91;5032610;28;20406;-77
2021/11/06 03:01:39;;;;;;;0.00;0.00;;;;;;;10.07;95.13;99492.16;5032999;28;20033;-79
2021/11/06 03:04:10;;;;;;;0.20;0.20;;;;;;;10.07;95.61;99516.22;5032465;28;20116;-76
2021/11/06 03:06:37;;;;;;;0.05;0.05;;;;;;;10.04;96.23;99519.44;5032781;28;20128;-76
2021/11/06 03:09:04;;;;;;;0.10;0.10;;;;;;;9.96;96.46;99518.06;5032229;28;20037;-76
2021/11/06 03:11:31;;;;;;;0.20;0.20;;;;;;;9.98;97.14;99520.47;5031707;28;20045;-76
2021/11/06 03:13:57;;;;;;;0.00;0.00;;;;;;;9.97;98.14;99527.66;5032312;28;20517;-78
2021/11/06 03:16:22;;;;;;;0.00;0.00;;;;;;;9.93;98.59;99524.72;5031945;28;20407;-75
2021/11/06 03:18:48;;;;;;;0.00;0.00;;;;;;;9.94;98.51;99531.66;5033842;28;20036;-76
2021/11/06 03:21:16;;;;;;;0.00;0.00;;;;;;;9.97;99.48;99545.56;5032279;28;20029;-76
2021/11/06 03:23:42;;;;;;;0.05;0.05;;;;;;;9.91;99.17;99536.72;5020605;28;20022;-78
2021/11/06 03:26:07;;;;;;;0.00;0.00;;;;;;;9.81;98.73;99534.00;5024822;28;20564;-75
2021/11/06 03:28:33;;;;;;;0.05;0.05;;;;;;;9.84;98.70;99546.84;5031979;28;20121;-75
2021/11/06 03:30:58;;;;;;;0.15;0.15;;;;;;;9.75;98.44;99549.19;5033874;28;20124;-77
2021/11/06 03:33:24;;;;;;;0.00;0.00;;;;;;;9.70;99.04;99546.50;5032044;28;20026;-78
2021/11/06 03:35:49;;;;;;;0.00;0.00;;;;;;;9.65;98.98;99551.81;5032143;28;20131;-77
2021/11/06 03:38:15;;;;;;;0.10;0.10;;;;;;;9.55;99.24;99548.00;5031963;28;20021;-77
2021/11/06 03:40:41;;;;;;;0.00;0.00;;;;;;;9.53;99.07;99544.81;5031247;28;20025;-74
2021/11/06 03:43:07;;;;;;;0.00;0.00;;;;;;;9.47;99.97;99545.78;5031231;28;20057;-74
2021/11/06 03:45:32;;;;;;;0.10;0.10;;;;;;;9.41;100.00;99547.66;5033488;28;20025;-74
2021/11/06 03:47:57;;;;;;;0.10;0.10;;;;;;;9.38;100.00;99547.34;5032040;28;20068;-76
2021/11/06 03:50:23;;;;;;;0.00;0.00;;;;;;;9.36;100.00;99547.63;5031657;28;20116;-76
2021/11/06 03:52:48;;;;;;;0.00;0.00;;;;;;;9.33;100.00;99540.09;5033081;28;20037;-77
2021/11/06 03:55:15;;;;;;;0.00;0.00;;;;;;;9.37;100.00;99545.72;5030942;28;20091;-75
2021/11/06 03:57:40;;;;;;;0.00;0.00;;;;;;;9.35;100.00;99551.34;5031565;28;20033;-75
2021/11/06 04:00:09;;;;;;;0.20;0.20;;;;;;;9.26;100.00;99529.66;5032403;28;20071;-74
2021/11/06 04:02:34;;;;;;;;;;;;;;;9.36;100.00;99555.63;5031952;28;20057;-74
2021/11/06 04:05:00;;;;;;;0.00;0.00;;;;;;;9.39;100.00;99551.63;5031289;28;20035;-75
2021/11/06 04:07:26;;;;;;;0.00;0.00;;;;;;;9.36;100.00;99542.28;5030407;28;20061;-74
2021/11/06 04:09:51;;;;;;;0.00;0.00;;;;;;;9.39;100.00;99540.94;5030960;28;20123;-74
2021/11/06 04:12:17;;;;;;;0.00;0.00;;;;;;;9.41;100.00;99542.31;5030941;28;20021;-75
2021/11/06 04:14:42;;;;;;;0.00;0.00;;;;;;;9.43;100.00;99550.84;5028133;28;20077;-74
2021/11/06 04:17:08;;;;;;;0.00;0.00;;;;;;;9.44;100.00;99559.66;5032141;28;20152;-75
2021/11/06 04:19:33;;;;;;;0.00;0.00;;;;;;;9.48;100.00;99570.66;5032611;28;20048;-75
2021/11/06 04:21:58;;;;;;;0.00;0.00;;;;;;;9.43;100.00;99556.19;5032082;28;20422;-74
2021/11/06 04:24:24;;;;;;;0.10;0.10;;;;;;;9.50;100.00;99566.66;5030774;28;20029;-77
2021/11/06 04:26:50;;;;;;;0.00;0.00;;;;;;;9.51;100.00;99573.63;5030372;28;20083;-74
2021/11/06 04:29:15;;;;;;;0.00;0.00;;;;;;;9.48;100.00;99574.09;5031055;28;20476;-74
2021/11/06 04:31:40;;;;;;;0.00;0.00;;;;;;;9.53;100.00;99579.50;5031153;28;20033;-74
2021/11/06 04:34:06;;;;;;;0.10;0.10;;;;;;;9.58;100.00;99584.06;5030767;28;20025;-73
2021/11/06 04:36:31;;;;;;;0.00;0.00;;;;;;;9.57;100.00;99575.25;5032140;28;20105;-74
2021/11/06 04:38:57;;;;;;;0.00;0.00;;;;;;;9.57;100.00;99566.44;5030606;28;20073;-75
2021/11/06 04:41:22;;;;;;;0.00;0.00;;;;;;;9.54;99.84;99564.28;5029749;28;20470;-75
2021/11/06 04:43:47;;;;;;;0.00;0.00;;;;;;;9.54;99.79;99558.94;5031056;28;20041;-73
2021/11/06 04:46:13;;;;;;;0.00;0.00;;;;;;;9.59;98.72;99566.97;5029799;28;20029;-74
2021/11/06 04:48:38;;;;;;;0.10;0.10;;;;;;;9.52;99.36;99558.38;5032384;28;20033;-75
2021/11/06 04:51:04;;;;;;;0.00;0.00;;;;;;;9.56;99.21;99575.53;5030781;28;20025;-74
2021/11/06 04:53:29;;;;;;;0.00;0.00;;;;;;;9.56;98.14;99570.97;5029968;28;20029;-75
2021/11/06 04:55:55;;;;;;;0.00;0.00;;;;;;;9.56;98.49;99570.97;5031945;28;20033;-73
2021/11/06 04:58:20;;;;;;;0.00;0.00;;;;;;;9.49;98.59;99557.03;5029983;28;20032;-73
2021/11/06 05:00:46;;;;;;;0.00;0.00;;;;;;;9.56;98.08;99580.88;5031475;28;20459;-74
2021/11/06 05:03:13;;;;;;;0.00;0.00;;;;;;;9.50;97.79;99582.69;5046744;28;20029;-76
2021/11/06 05:05:39;;;;;;;0.00;0.00;;;;;;;9.52;97.89;99585.09;5030337;28;20065;-76
2021/11/06 05:08:04;;;;;;;0.00;0.00;;;;;;;9.50;97.71;99581.88;5030287;28;20056;-76
2021/11/06 05:10:30;;;;;;;0.00;0.00;;;;;;;9.49;97.78;99577.59;5016256;28;20068;-77
2021/11/06 05:12:55;;;;;;;0.00;0.00;;;;;;;9.48;97.70;99590.13;5010689;28;20055;-74
2021/11/06 05:15:21;;;;;;;0.00;0.00;;;;;;;9.53;98.02;99600.88;5016173;28;20094;-75
2021/11/06 05:17:46;;;;;;;0.00;0.00;;;;;;;9.48;97.72;99600.00;5022853;28;20075;-73
2021/11/06 05:20:12;;;;;;;0.00;0.00;;;;;;;9.40;97.80;99596.75;5017986;28;20044;-74
2021/11/06 05:22:38;;;;;;;0.00;0.00;;;;;;;9.48;97.65;99616.03;5022925;28;20034;-74
2021/11/06 05:25:05;;;;;;;0.00;0.00;;;;;;;9.56;98.35;99634.25;5030660;28;20037;-73
2021/11/06 05:27:32;;;;;;;0.00;0.00;;;;;;;9.58;97.82;99634.78;5026610;28;20033;-73
2021/11/06 05:29:59;;;;;;;0.00;0.00;;;;;;;9.55;97.68;99619.31;5026850;28;20483;-72
2021/11/06 05:32:24;;;;;;;0.00;0.00;;;;;;;9.57;97.30;99627.84;5031077;28;20026;-74
2021/11/06 05:34:51;;;;;;;0.00;0.00;;;;;;;9.63;97.96;99640.19;5031204;28;20052;-72
2021/11/06 05:37:16;;;;;;;0.00;0.00;;;;;;;9.58;97.29;99632.13;5030599;28;20064;-73
2021/11/06 05:39:42;;;;;;;0.32;0.32;;;;;;;9.69;97.91;99641.03;5030832;28;20030;-71
2021/11/06 05:42:07;;;;;;;0.00;0.00;;;;;;;9.69;97.46;99635.69;5030003;28;20052;-71
2021/11/06 05:44:33;;;;;;;0.00;0.00;;;;;;;9.81;96.86;99644.31;5014820;28;20041;-71
2021/11/06 05:46:58;;;;;;;0.00;0.00;;;;;;;9.83;97.18;99641.41;5027886;28;20064;-71
2021/11/06 05:49:23;;;;;;;0.00;0.00;;;;;;;9.98;96.87;99659.41;5030697;28;20484;-72
2021/11/06 05:51:49;;;;;;;0.15;0.15;;;;;;;10.01;96.31;99662.38;5030423;28;20029;-71
2021/11/06 05:54:14;;;;;;;0.00;0.00;;;;;;;10.02;96.86;99653.31;5028422;28;20033;-71
2021/11/06 05:56:41;;;;;;;0.00;0.00;;;;;;;10.17;96.86;99663.28;5029279;28;20032;-72
2021/11/06 05:59:08;;;;;;;0.00;0.00;;;;;;;9.99;97.30;99626.28;5011270;28;20403;-72
2021/11/06 06:01:34;;;;;;;0.00;0.00;;;;;;;10.33;97.20;99669.53;5011223;28;20045;-73
2021/11/06 06:03:59;;;;;;;0.00;0.00;;;;;;;10.27;96.55;99643.03;5011336;28;20065;-74
2021/11/06 06:06:25;;;;;;;0.00;0.00;;;;;;;10.48;96.23;99674.16;5019223;28;20545;-71
2021/11/06 06:08:50;;;;;;;0.00;0.00;;;;;;;10.51;95.05;99668.31;5030633;28;20030;-73
2021/11/06 06:11:16;;;;;;;0.00;0.00;;;;;;;10.54;95.39;99683.03;5029785;28;20025;-71
2021/11/06 06:13:42;;;;;;;0.00;0.00;;;;;;;10.51;94.83;99675.53;5030518;28;20029;-71
2021/11/06 06:16:07;;;;;;;1.10;0.73;;;;;;;10.55;95.16;99664.06;5030777;28;20116;-72
2021/11/06 06:18:32;;;;;;;0.00;0.00;;;;;;;10.70;95.31;99678.56;5030166;28;20442;-69
2021/11/06 06:20:58;;;;;;;0.00;0.00;;;;;;;10.72;94.76;99671.09;5030004;28;20037;-72
2021/11/06 06:23:23;;;;;;;0.13;0.13;;;;;;;10.86;94.53;99684.78;5030138;28;20071;-74
2021/11/06 06:25:49;;;;;;;0.10;0.10;;;;;;;10.92;93.34;99688.28;5029188;28;20064;-75
2021/11/06 06:28:15;;;;;;;0.00;0.00;;;;;;;10.84;92.29;99676.19;5028772;28;20034;-71
2021/11/06 06:30:40;;;;;;;1.35;0.55;;;;;;;10.96;92.74;99692.03;5030600;28;20022;-74
2021/11/06 06:33:05;;;;;;;0.00;0.00;;;;;;;10.96;93.13;99678.66;5028773;28;20025;-72
2021/11/06 06:35:31;;;;;;;0.00;0.00;;;;;;;11.09;92.86;99690.75;5030288;28;20507;-72
2021/11/06 06:37:57;;;;;;;0.03;0.03;;;;;;;11.15;92.62;99685.13;5019191;28;20034;-74
2021/11/06 06:40:24;;;;;;;0.00;0.00;;;;;;;11.18;92.63;99676.59;5029613;28;20410;-71
2021/11/06 06:42:49;;;;;;;0.00;0.00;;;;;;;11.31;91.64;99693.22;5029165;28;20052;-74
2021/11/06 06:45:15;;;;;;;0.00;0.00;;;;;;;11.34;90.97;99696.16;5028683;28;20025;-77
2021/11/06 06:47:40;;;;;;;1.73;0.38;;;;;;;11.43;91.55;99701.00;5028979;28;20037;-75
2021/11/06 06:50:08;;;;;;;0.00;0.00;;;;;;;11.53;91.43;99711.72;5029044;28;20025;-75
2021/11/06 06:52:34;;;;;;;0.00;0.00;;;;;;;11.64;91.02;99718.69;5028389;28;20111;-82
2021/11/06 06:55:00;;;;;;;0.75;0.65;;;;;;;11.70;90.87;99714.16;5028159;28;20401;-76
2021/11/06 06:57:26;;;;;;;0.00;0.00;;;;;;;11.73;91.59;99724.34;5030403;28;20026;-76
2021/11/06 06:59:51;;;;;;;0.00;0.00;;;;;;;11.81;92.90;99725.69;5028619;28;20116;-77
2021/11/06 07:02:17;;;;;;;0.00;0.00;;;;;;;11.90;92.86;99736.69;5028933;28;20419;-76
2021/11/06 07:04:42;;;;;;;0.15;0.15;;;;;;;11.94;92.88;99741.25;5031577;28;20486;-91
2021/11/06 07:07:09;;;;;;;1.02;1.02;;;;;;;12.04;95.00;99743.16;5033149;28;20113;-92
2021/11/06 07:09:34;;;;;;;0.85;0.85;;;;;;;12.20;94.93;99735.09;5033524;28;20034;-93
2021/11/06 07:12:00;;;;;;;0.45;0.45;;;;;;;12.37;94.00;99737.50;5033412;28;20568;-86
2021/11/06 07:14:25;;;;;;;0.10;0.10;;;;;;;12.44;94.03;99727.31;5032798;28;20087;-74
2021/11/06 07:16:52;;;;;;;0.00;0.00;;;;;;;12.64;94.22;99735.28;5033847;28;20471;-74
2021/11/06 07:19:18;;;;;;;0.10;0.10;;;;;;;12.85;93.81;99737.91;5033539;28;20057;-75
2021/11/06 07:21:44;;;;;;;0.00;0.00;;;;;;;12.97;92.67;99729.53;5033976;28;20053;-76
2021/11/06 07:24:09;;;;;;;0.00;0.00;;;;;;;13.08;93.36;99724.94;5034465;28;20491;-76
2021/11/06 07:26:35;;;;;;;0.32;0.32;;;;;;;13.33;93.04;99739.31;5032639;28;20030;-77
2021/11/06 07:29:01;;;;;;;0.68;0.47;;;;;;;13.48;92.49;99744.63;5036637;28;20394;-76
2021/11/06 07:31:27;;;;;;;0.00;0.00;;;;;;;13.55;92.29;99739.75;5032488;28;20033;-76
2021/11/06 07:33:54;;;;;;;0.03;0.03;;;;;;;13.69;92.46;99739.91;5033443;28;20025;-75
2021/11/06 07:36:21;;;;;;;0.40;0.40;;;;;;;13.77;92.47;99730.47;5029142;28;20404;-76
2021/11/06 07:38:46;;;;;;;0.00;0.00;;;;;;;13.87;91.90;99735.75;5024645;28;20029;-77
2021/11/06 07:41:12;;;;;;;0.25;0.25;;;;;;;13.97;91.38;99732.19;5031969;28;20025;-78
2021/11/06 07:43:38;;;;;;;0.08;0.08;;;;;;;14.08;91.33;99731.00;5031647;28;20045;-77
2021/11/06 07:46:07;;;;;;;0.45;0.45;;;;;;;14.22;89.95;99743.81;5029781;28;20022;-77
2021/11/06 07:48:32;;;;;;;0.15;0.15;;;;;;;14.33;90.54;99747.22;5031270;28;20041;-79
2021/11/06 07:50:58;;;;;;;0.00;0.00;;;;;;;14.38;90.80;99736.44;5031790;28;20414;-77
2021/11/06 07:53:24;;;;;;;0.00;0.00;;;;;;;14.56;90.27;99749.16;5031462;28;20388;-79
2021/11/06 07:55:50;;;;;;;0.00;0.00;;;;;;;14.68;90.00;99750.66;5031623;28;20033;-79
2021/11/06 07:58:15;;;;;;;0.00;0.00;;;;;;;14.80;89.62;99747.59;5030546;28;20037;-81
2021/11/06 08:00:41;;;;;;;0.00;0.00;;;;;;;14.91;88.63;99753.66;5030768;28;20176;-78
2021/11/06 08:03:07;;;;;;;0.10;0.10;;;;;;;15.04;88.37;99748.38;5022971;28;20037;-77
2021/11/06 08:05:33;;;;;;;0.00;0.00;;;;;;;15.17;88.13;99748.75;5031163;28;20026;-78
2021/11/06 08:07:59;;;;;;;0.00;0.00;;;;;;;15.30;87.65;99760.72;5032986;28;20041;-77
2021/11/06 08:10:26;;;;;;;0.00;0.00;;;;;;;15.39;85.97;99758.16;5031015;28;20052;-75
2021/11/06 08:12:52;;;;;;;0.13;0.13;;;;;;;15.44;85.57;99739.22;5027875;28;20064;-78
2021/11/06 08:15:18;;;;;;;0.00;0.00;;;;;;;15.49;86.06;99741.84;5014984;28;20721;-77
2021/11/06 08:17:44;;;;;;;0.00;0.00;;;;;;;15.52;85.65;99731.28;5026868;28;20028;-78
2021/11/06 08:20:10;;;;;;;1.00;0.73;;;;;;;15.56;85.02;99736.88;5020577;28;20033;-77
2021/11/06 08:22:36;;;;;;;0.10;0.10;;;;;;;15.55;84.29;99715.63;5030915;28;20029;-75
2021/11/06 08:25:05;;;;;;;0.00;0.00;;;;;;;15.66;84.59;99739.44;5030994;28;20585;-75
2021/11/06 08:27:31;;;;;;;2.35;1.95;;;;;;;15.74;83.78;99737.97;5030759;28;20022;-76
2021/11/06 08:29:56;;;;;;;0.00;0.00;;;;;;;15.83;83.56;99741.66;5043769;28;20030;-75
2021/11/06 08:32:21;;;;;;;0.20;0.20;;;;;;;15.91;83.63;99737.47;5030603;28;20157;-76
2021/11/06 08:34:47;;;;;;;0.17;0.17;;;;;;;15.95;83.33;99740.38;5030363;28;20120;-87
2021/11/06 08:37:12;;;;;;;0.00;0.00;;;;;;;15.93;83.94;99735.28;5030941;28;20032;-74
2021/11/06 08:39:38;;;;;;;0.30;0.30;;;;;;;16.08;83.62;99742.31;5032243;28;20026;-73
2021/11/06 08:42:04;;;;;;;0.00;0.00;;;;;;;16.14;83.11;99743.06;5045279;28;20057;-86
2021/11/06 08:44:29;;;;;;;0.20;0.20;;;;;;;16.16;82.38;99748.94;5030711;28;20033;-81
2021/11/06 08:46:55;;;;;;;0.00;0.00;;;;;;;16.20;82.49;99732.94;5017546;28;20128;-73
2021/11/06 08:49:22;;;;;;;0.10;0.10;;;;;;;16.31;81.82;99747.88;5010724;28;20030;-73
2021/11/06 08:51:51;;;;;;;0.10;0.10;;;;;;;16.40;81.20;99751.50;5019920;28;20033;-79
2021/11/06 08:54:20;;;;;;;0.10;0.10;;;;;;;16.51;80.63;99751.31;5030153;28;20069;-75
2021/11/06 08:56:46;;;;;;;0.00;0.00;;;;;;;16.58;80.34;99752.53;5031673;28;20052;-74
2021/11/06 08:59:14;;;;;;;0.20;0.20;;;;;;;16.67;79.78;99762.63;5031199;28;20044;-73
2021/11/06 09:01:40;;;;;;;0.63;0.63;;;;;;;16.68;79.56;99751.53;5024010;28;20041;-75
2021/11/06 09:04:05;;;;;;;0.30;0.30;;;;;;;16.85;79.72;99766.34;5010866;28;20030;-73
2021/11/06 09:06:33;;;;;;;0.10;0.10;;;;;;;16.86;79.02;99749.84;5014412;28;20025;-74
2021/11/06 09:09:02;;;;;;;0.10;0.10;;;;;;;16.98;78.64;99752.06;5031511;28;20471;-72
2021/11/06 09:11:27;;;;;;;0.10;0.10;;;;;;;17.13;78.65;99754.44;5030296;28;20037;-73
2021/11/06 09:13:55;;;;;;;0.10;0.10;;;;;;;17.22;77.92;99761.84;5029742;28;20084;-73
2021/11/06 09:16:21;;;;;;;0.30;0.30;;;;;;;17.28;77.53;99750.63;5011924;28;20029;-73
2021/11/06 09:18:46;;;;;;;0.20;0.20;;;;;;;17.35;77.12;99747.50;5012107;28;20116;-73
2021/11/06 09:21:15;;;;;;;0.10;0.10;;;;;;;17.42;76.53;99738.97;5011791;28;20398;-73
2021/11/06 09:23:41;;;;;;;0.40;0.40;;;;;;;17.49;75.84;99749.38;5011483;28;20534;-73
2021/11/06 09:26:08;;;;;;;0.00;0.00;;;;;;;17.59;76.22;99752.66;5011595;28;20026;-73
2021/11/06 09:28:40;;;;;;;0.10;0.10;;;;;;;17.69;76.21;99759.72;5011159;28;20056;-73
2021/11/06 09:31:06;;;;;;;0.15;0.15;;;;;;;17.78;76.01;99765.19;5011801;28;20030;-72
2021/11/06 09:33:31;;;;;;;0.00;0.00;;;;;;;17.86;76.16;99755.56;5009948;28;20036;-72
2021/11/06 09:35:56;;;;;;;0.00;0.00;;;;;;;17.89;75.60;99752.22;5010259;28;20099;-72
2021/11/06 09:38:22;;;;;;;0.30;0.30;;;;;;;17.96;75.60;99741.81;5011645;28;20092;-72
2021/11/06 09:40:47;;;;;;;0.82;0.82;;;;;;;18.07;75.02;99743.16;5011449;28;20103;-72
2021/11/06 09:43:16;;;;;;;0.13;0.13;;;;;;;18.21;74.88;99753.09;5011123;28;20042;-72
2021/11/06 09:45:42;;;;;;;0.00;0.00;;;;;;;18.32;74.22;99756.34;5011149;28;20116;-72
2021/11/06 09:48:08;;;;;;;0.08;0.08;;;;;;;18.39;72.79;99751.28;5011416;28;20033;-72
2021/11/06 09:50:33;;;;;;;0.00;0.00;;;;;;;18.49;71.39;99755.63;5010896;28;20022;-73
2021/11/06 09:52:59;;;;;;;0.10;0.10;;;;;;;18.57;70.82;99749.47;5011220;28;20137;-73
2021/11/06 09:55:24;;;;;;;0.32;0.32;;;;;;;18.67;69.05;99759.22;5009507;28;20479;-72
2021/11/06 09:57:51;;;;;;;0.10;0.10;;;;;;;18.72;69.09;99762.59;5011136;28;20038;-72
2021/11/06 10:00:19;;;;;;;0.10;0.10;;;;;;;18.69;68.84;99736.13;5011211;28;20430;-72
2021/11/06 10:02:45;;;;;;;0.17;0.17;;;;;;;18.82;68.49;99747.16;5011073;28;20025;-72
2021/11/06 10:05:12;;;;;;;0.10;0.10;;;;;;;18.91;68.26;99745.31;5010913;28;20026;-71
2021/11/06 10:07:39;;;;;;;0.47;0.47;;;;;;;18.93;67.66;99740.38;5011031;28;20113;-71
2021/11/06 10:10:13;;;;;;;2.53;0.65;;;;;;;19.08;67.67;99741.84;5010862;28;20097;-71
2021/11/06 10:12:57;;;;;;;0.28;0.28;;;;;;;19.04;66.32;99733.56;5010890;28;20022;-72
2021/11/06 10:15:24;;;;;;;0.63;0.63;;;;;;;19.13;66.53;99738.97;5010944;28;20025;-71
2021/11/06 10:17:51;;;;;;;0.20;0.20;;;;;;;19.17;67.29;99733.72;5010548;28;20125;-73
2021/11/06 10:20:32;;;;;;;0.25;0.25;;;;;;;19.19;66.25;99732.28;5010689;28;20061;-73
2021/11/06 10:23:01;;;;;;;0.75;0.22;;;;;;;19.20;66.44;99731.19;5011059;28;20113;-73
2021/11/06 10:25:28;;;;;;;0.25;0.25;;;;;;;19.25;64.52;99751.94;5009484;28;20030;-70
2021/11/06 10:27:59;;;;;;;0.10;0.10;;;;;;;19.30;64.32;99748.28;5010877;28;20046;-72
2021/11/06 10:30:29;;;;;;;0.65;0.65;;;;;;;19.29;63.77;99739.31;5010754;28;20029;-71
2021/11/06 10:33:03;;;;;;;0.40;0.40;;;;;;;19.31;64.53;99744.41;5010921;28;20032;-73
2021/11/06 10:35:35;;;;;;;0.20;0.20;;;;;;;19.29;63.54;99738.53;5010720;28;20036;-72
2021/11/06 10:38:07;;;;;;;0.30;0.30;;;;;;;19.34;62.56;99741.09;5010627;28;20339;-72
2021/11/06 10:40:44;;;;;;;0.40;0.38;;;;;;;19.27;62.66;99724.50;5014024;28;20022;-72
2021/11/06 10:43:13;;;;;;;0.10;0.10;;;;;;;19.32;62.81;99738.69;5014751;28;20060;-72
2021/11/06 10:45:44;;;;;;;0.10;0.10;;;;;;;19.38;62.87;99742.03;5014387;28;20041;-73
2021/11/06 10:48:16;;;;;;;0.32;0.32;;;;;;;19.33;62.44;99721.31;5014501;28;20030;-71
2021/11/06 10:50:54;;;;;;;0.00;0.00;;;;;;;19.44;63.26;99732.63;5014214;28;20046;-72
2021/11/06 10:53:46;;;;;;;0.35;0.35;;;;;;;19.49;62.79;99739.81;5013238;28;20450;-73
2021/11/06 10:56:14;;;;;;;0.03;0.03;;;;;;;19.54;62.87;99736.94;5014535;28;20414;-73
2021/11/06 10:58:40;;;;;;;;;;;;;;;19.59;62.44;99738.69;5014603;28;20030;-72
2021/11/06 11:01:09;;;;;;;0.00;0.00;;;;;;;19.61;62.23;99731.84;5014709;28;19996;-71
2021/11/06 11:03:37;;;;;;;0.10;0.10;;;;;;;19.65;62.17;99735.53;5013926;28;20040;-71
2021/11/06 11:06:09;;;;;;;0.08;0.05;;;;;;;19.60;61.39;99730.22;5014286;28;20106;-71
2021/11/06 11:08:51;;;;;;;0.20;0.20;;;;;;;19.70;60.90;99748.13;5014119;28;20030;-71
2021/11/06 11:11:21;;;;;;;0.70;0.52;;;;;;;19.71;61.35;99740.78;5014211;28;20044;-71
2021/11/06 11:13:53;;;;;;;0.95;0.95;;;;;;;19.77;62.14;99739.50;5013854;28;20030;-70
2021/11/06 11:16:20;;;;;;;0.20;0.17;;;;;;;19.74;62.14;99726.56;5014116;28;20069;-71
2021/11/06 11:18:48;;;;;;;0.10;0.10;;;;;;;19.77;61.51;99713.13;5013410;28;20030;-71
2021/11/06 11:21:19;;;;;;;0.43;0.43;;;;;;;19.89;62.30;99725.31;5012799;28;20030;-71
2021/11/06 11:23:57;;;;;;;0.10;0.10;;;;;;;19.93;62.40;99727.06;5013884;28;20108;-72
2021/11/06 11:26:40;;;;;;;0.10;0.10;;;;;;;20.02;62.72;99727.03;5013881;28;20026;-73
2021/11/06 11:29:07;;;;;;;0.45;0.30;;;;;;;20.08;63.31;99722.22;5013731;28;20036;-73
2021/11/06 11:31:33;;;;;;;0.17;0.17;;;;;;;20.15;62.21;99726.06;5013651;28;20037;-73